Time;durP1;ratioP1;P1;durP2;ratioP2;P2;SDS_P1;SDS_P2;PMS_P1;PMS_P2;Temp;Humidity;BMP_temperature;BMP_pressure;BME280_temperature;BME280_humidity;BME280_pressure;Samples;Min_cycle;Max_cycle;Signal;HPM_P1;HPM_P2
2022/09/21 00:01:26;;;;;;;4.50;4.00;;;8.80;99.90;;;;;;4963374;28;20463;-72
2022/09/21 00:04:33;;;;;;;;;;;;;;;;;;;;;
2022/09/21 00:07:51;;;;;;;6.27;4.20;;;8.70;99.90;;;;;;4966228;28;20470;-70
2022/09/21 00:10:55;;;;;;;4.57;4.17;;;8.70;99.90;;;;;;4967432;28;20454;-70
2022/09/21 00:13:57;;;;;;;5.33;3.70;;;8.60;99.90;;;;;;4959301;28;20466;-72
2022/09/21 00:17:06;;;;;;;5.43;4.17;;;8.60;99.90;;;;;;4965671;28;20479;-70
2022/09/21 00:20:29;;;;;;;5.57;4.60;;;8.60;99.90;;;;;;4970928;28;20458;-70
2022/09/21 00:23:26;;;;;;;3.80;3.43;;;8.60;99.90;;;;;;4903358;29;20538;-71
2022/09/21 00:26:35;;;;;;;5.20;3.90;;;8.50;99.90;;;;;;4934994;28;21018;-71
2022/09/21 00:29:39;;;;;;;5.77;4.07;;;8.50;99.90;;;;;;4969543;28;20453;-71
2022/09/21 00:32:42;;;;;;;4.93;4.23;;;8.50;99.90;;;;;;4968052;28;20451;-70
2022/09/21 00:35:38;;;;;;;4.80;4.13;;;8.50;99.90;;;;;;4978003;28;20473;-70
2022/09/21 00:38:37;;;;;;;7.70;5.30;;;8.40;99.90;;;;;;4966559;28;20609;-70
2022/09/21 00:41:43;;;;;;;4.90;4.30;;;8.40;99.90;;;;;;4965201;28;20447;-70
2022/09/21 00:44:50;;;;;;;4.73;3.60;;;8.40;99.90;;;;;;4961568;28;20454;-70
2022/09/21 00:48:01;;;;;;;4.43;4.03;;;8.40;99.90;;;;;;4970200;28;20506;-71
2022/09/21 00:51:13;;;;;;;5.50;4.37;;;8.30;99.90;;;;;;4975357;28;20461;-70
2022/09/21 00:54:16;;;;;;;4.37;3.67;;;8.30;99.90;;;;;;4966556;28;20438;-71
2022/09/21 00:57:31;;;;;;;4.20;3.80;;;8.30;99.90;;;;;;4966220;28;20473;-71
2022/09/21 01:00:38;;;;;;;4.63;3.70;;;8.20;99.90;;;;;;4965906;28;20941;-70
2022/09/21 01:03:39;;;;;;;4.57;4.17;;;8.20;99.90;;;;;;4968733;28;20459;-71
2022/09/21 01:10:23;;;;;;;4.67;4.17;;;8.20;99.90;;;;;;4952854;28;20489;-72
2022/09/21 01:13:44;;;;;;;;;;;;;;;;;;;;;
2022/09/21 01:16:54;;;;;;;5.67;3.80;;;8.20;99.90;;;;;;4965277;28;20474;-71
2022/09/21 01:20:28;;;;;;;5.17;4.53;;;8.10;99.90;;;;;;4968096;28;20942;-71
2022/09/21 01:23:59;;;;;;;4.57;3.63;;;8.10;99.90;;;;;;4974497;28;21061;-71
2022/09/21 01:27:31;;;;;;;5.80;4.40;;;8.10;99.90;;;;;;4954105;28;20536;-71
2022/09/21 01:30:38;;;;;;;4.20;3.80;;;8.10;99.90;;;;;;4969069;28;20434;-71
2022/09/21 01:37:39;;;;;;;;;;;;;;;;;;;;;
2022/09/21 01:44:19;;;;;;;6.80;4.30;;;7.90;99.90;;;;;;4967194;28;20982;-71
2022/09/21 01:47:26;;;;;;;5.63;5.00;;;7.90;99.90;;;;;;4965690;28;20474;-71
2022/09/21 01:50:20;;;;;;;5.70;4.20;;;7.90;99.90;;;;;;4965789;28;20476;-71
2022/09/21 01:53:24;;;;;;;5.43;4.20;;;7.90;99.90;;;;;;4958803;28;20534;-71
2022/09/21 01:59:47;;;;;;;4.33;3.93;;;7.80;99.90;;;;;;4964803;28;20478;-71
2022/09/21 02:03:00;;;;;;;5.77;4.10;;;7.80;99.90;;;;;;4963900;28;20617;-71
2022/09/21 02:06:13;;;;;;;4.93;4.07;;;7.80;99.90;;;;;;4964643;28;20462;-71
2022/09/21 02:09:27;;;;;;;5.00;4.10;;;7.80;99.90;;;;;;4968612;28;20466;-71
2022/09/21 02:12:42;;;;;;;4.57;4.00;;;7.80;99.90;;;;;;4971829;28;20460;-71
2022/09/21 02:15:50;;;;;;;5.90;3.93;;;7.70;99.90;;;;;;4965667;28;20458;-71
2022/09/21 02:18:53;;;;;;;4.53;4.03;;;7.70;99.90;;;;;;4968572;28;20462;-71
2022/09/21 02:22:09;;;;;;;5.00;4.57;;;7.70;99.90;;;;;;4966005;28;20476;-71
2022/09/21 02:25:34;;;;;;;5.33;4.30;;;7.70;99.90;;;;;;4976652;28;20453;-71
2022/09/21 02:28:47;;;;;;;4.73;4.10;;;7.60;99.90;;;;;;4971706;28;20450;-71
2022/09/21 02:31:49;;;;;;;5.10;4.60;;;7.60;99.90;;;;;;4970503;28;20458;-71
2022/09/21 02:38:25;;;;;;;5.70;4.30;;;7.60;99.90;;;;;;4972344;28;20481;-71
2022/09/21 02:41:37;;;;;;;4.43;3.83;;;7.50;99.90;;;;;;4966526;28;20471;-71
2022/09/21 02:44:51;;;;;;;4.57;4.17;;;7.50;99.90;;;;;;4964893;28;20458;-71
2022/09/21 02:48:02;;;;;;;4.90;4.50;;;7.50;99.90;;;;;;4970194;28;20625;-71
2022/09/21 02:51:38;;;;;;;4.63;4.23;;;7.50;99.90;;;;;;4966800;28;20964;-71
2022/09/21 02:54:41;;;;;;;4.80;4.30;;;7.50;99.90;;;;;;4978110;28;20460;-71
2022/09/21 02:57:46;;;;;;;4.30;3.90;;;7.40;99.90;;;;;;4971196;28;20482;-71
2022/09/21 03:00:52;;;;;;;7.13;4.10;;;7.40;99.90;;;;;;4966981;28;21018;-71
2022/09/21 03:03:49;;;;;;;5.07;4.13;;;7.40;99.90;;;;;;4966756;28;20458;-71
2022/09/21 03:06:55;;;;;;;4.90;4.40;;;7.40;99.90;;;;;;4968184;28;20508;-71
2022/09/21 03:09:53;;;;;;;6.40;4.50;;;7.30;99.90;;;;;;4963712;28;20442;-71
2022/09/21 03:12:48;;;;;;;4.70;4.20;;;7.30;99.90;;;;;;4966955;28;20545;-71
2022/09/21 03:15:48;;;;;;;4.73;4.33;;;7.30;99.90;;;;;;4963963;28;20466;-71
2022/09/21 03:22:17;;;;;;;;;;;;;;;;;;;;;
2022/09/21 03:25:34;;;;;;;4.07;3.77;;;7.20;99.90;;;;;;4970988;28;20496;-71
2022/09/21 03:28:50;;;;;;;4.83;4.43;;;7.20;99.90;;;;;;4965920;28;20454;-71
2022/09/21 03:31:44;;;;;;;7.17;4.20;;;7.20;99.90;;;;;;4967628;28;20463;-71
2022/09/21 03:34:45;;;;;;;5.07;4.47;;;7.20;99.90;;;;;;4958730;28;20457;-70
2022/09/21 03:37:45;;;;;;;5.07;4.67;;;7.20;99.90;;;;;;4968441;28;20492;-71
2022/09/21 03:40:45;;;;;;;5.60;4.87;;;7.20;99.90;;;;;;4967395;28;20453;-71
2022/09/21 03:43:59;;;;;;;6.63;4.43;;;7.20;99.90;;;;;;4964321;28;20475;-71
2022/09/21 03:47:10;;;;;;;7.43;4.30;;;7.20;99.90;;;;;;4966301;28;20667;-71
2022/09/21 03:50:11;;;;;;;6.20;5.47;;;7.20;99.90;;;;;;4967545;28;20480;-71
2022/09/21 03:53:15;;;;;;;5.40;4.90;;;7.20;99.90;;;;;;4971933;28;20479;-71
2022/09/21 03:56:13;;;;;;;5.37;4.87;;;7.30;99.90;;;;;;4970724;28;20498;-71
2022/09/21 03:59:12;;;;;;;7.00;5.53;;;7.30;99.90;;;;;;4964898;28;20550;-71
2022/09/21 04:02:21;;;;;;;;;;;;;;;;;;;;;
2022/09/21 04:05:24;;;;;;;5.63;5.10;;;7.40;99.90;;;;;;4963806;28;20478;-71
2022/09/21 04:08:20;;;;;;;9.17;5.77;;;7.40;99.90;;;;;;4964576;28;20458;-71
2022/09/21 04:11:21;;;;;;;10.20;6.53;;;7.40;99.90;;;;;;4971090;28;20447;-71
2022/09/21 04:14:19;;;;;;;8.80;6.33;;;7.40;99.90;;;;;;4964326;28;20469;-71
2022/09/21 04:17:18;;;;;;;8.30;6.40;;;7.40;99.90;;;;;;4963925;28;20474;-71
2022/09/21 04:20:27;;;;;;;10.60;7.67;;;7.40;99.90;;;;;;4954936;28;20450;-71
2022/09/21 04:23:42;;;;;;;8.83;6.07;;;7.40;99.90;;;;;;4969785;28;20955;-71
2022/09/21 04:26:54;;;;;;;6.97;6.27;;;7.40;99.90;;;;;;4964495;28;20973;-71
2022/09/21 04:29:50;;;;;;;6.60;5.80;;;7.40;99.90;;;;;;4965061;28;20990;-71
2022/09/21 04:32:48;;;;;;;6.30;5.70;;;7.40;99.90;;;;;;4954039;28;20450;-71
2022/09/21 04:35:42;;;;;;;6.37;5.77;;;7.40;99.90;;;;;;4953538;28;20508;-71
2022/09/21 04:42:19;;;;;;;6.00;5.40;;;7.40;99.90;;;;;;4945197;28;20958;-71
2022/09/21 04:45:26;;;;;;;8.50;5.70;;;7.40;99.90;;;;;;4956030;28;20467;-71
2022/09/21 04:48:26;;;;;;;6.20;5.60;;;7.40;99.90;;;;;;4968869;28;20450;-71
2022/09/21 04:51:39;;;;;;;5.80;5.30;;;7.40;99.90;;;;;;4959930;28;20450;-71
2022/09/21 04:54:47;;;;;;;5.77;5.20;;;7.30;99.90;;;;;;4966265;28;20791;-71
2022/09/21 05:00:57;;;;;;;5.60;5.10;;;7.30;99.90;;;;;;4967670;28;20464;-71
2022/09/21 05:04:01;;;;;;;6.37;5.77;;;7.30;99.90;;;;;;4960612;28;21016;-71
2022/09/21 05:06:58;;;;;;;5.90;5.40;;;7.20;99.90;;;;;;4962586;28;20474;-72
2022/09/21 05:10:06;;;;;;;6.80;6.13;;;7.30;99.90;;;;;;4966258;28;20916;-72
2022/09/21 05:13:05;;;;;;;6.70;6.07;;;7.30;99.90;;;;;;4958668;28;20446;-72
2022/09/21 05:19:25;;;;;;;5.87;5.30;;;7.20;99.90;;;;;;4933811;28;20493;-72
2022/09/21 05:22:27;;;;;;;6.03;5.43;;;7.20;99.90;;;;;;4957545;28;20843;-71
2022/09/21 05:25:58;;;;;;;6.47;5.87;;;7.10;99.90;;;;;;4963711;28;21028;-72
2022/09/21 05:28:55;;;;;;;6.60;6.00;;;7.20;99.90;;;;;;5010551;23;20500;-70
2022/09/21 05:32:07;;;;;;;7.17;5.93;;;7.20;99.90;;;;;;5032413;28;20537;-70
2022/09/21 05:35:27;;;;;;;8.00;5.80;;;7.10;99.90;;;;;;5020334;28;20460;-70
2022/09/21 05:38:36;;;;;;;6.50;5.80;;;7.20;99.90;;;;;;5019297;28;20617;-69
2022/09/21 05:42:05;;;;;;;7.00;6.30;;;7.20;99.90;;;;;;5019269;28;20447;-69
2022/09/21 05:48:33;;;;;;;8.37;7.50;;;7.20;99.90;;;;;;5025252;28;20475;-71
2022/09/21 05:51:38;;;;;;;7.33;6.50;;;7.30;99.90;;;;;;5027266;28;20455;-71
2022/09/21 05:54:49;;;;;;;7.43;6.73;;;7.30;99.90;;;;;;5023924;28;20504;-72
2022/09/21 05:57:55;;;;;;;8.03;7.23;;;7.30;99.90;;;;;;5026011;28;20483;-71
2022/09/21 06:00:54;;;;;;;8.27;7.37;;;7.30;99.90;;;;;;5027745;28;20444;-69
2022/09/21 06:03:49;;;;;;;8.23;6.90;;;7.30;99.90;;;;;;5011018;28;20474;-70
2022/09/21 06:06:40;;;;;;;8.63;7.83;;;7.30;99.90;;;;;;5009218;28;20503;-71
2022/09/21 06:09:36;;;;;;;7.70;6.93;;;7.30;99.90;;;;;;5021908;28;20463;-69
2022/09/21 06:12:35;;;;;;;7.70;7.00;;;7.40;99.90;;;;;;5015615;28;20455;-69
2022/09/21 06:15:27;;;;;;;7.63;6.93;;;7.40;99.90;;;;;;5022375;28;20519;-69
2022/09/21 06:18:17;;;;;;;7.90;7.20;;;7.40;99.90;;;;;;5027186;28;20475;-69
2022/09/21 06:21:12;;;;;;;7.63;6.93;;;7.50;99.90;;;;;;5026180;28;20478;-69
2022/09/21 06:24:15;;;;;;;;;;;;;;;;;;;;;
2022/09/21 06:27:05;;;;;;;7.03;6.33;;;7.50;99.90;;;;;;5027507;28;20475;-72
2022/09/21 06:29:55;;;;;;;6.93;6.23;;;7.70;99.90;;;;;;5019193;28;20951;-73
2022/09/21 06:32:47;;;;;;;6.60;6.10;;;8.10;99.90;;;;;;5016763;28;20451;-73
2022/09/21 06:35:52;;;;;;;5.53;5.13;;;8.70;99.90;;;;;;5020787;28;20475;-73
2022/09/21 06:38:40;;;;;;;6.40;5.83;;;8.80;99.90;;;;;;5020182;28;20498;-73
2022/09/21 06:41:39;;;;;;;6.53;6.03;;;8.70;99.90;;;;;;5018966;28;20467;-72
2022/09/21 06:44:28;;;;;;;6.73;6.13;;;8.60;99.90;;;;;;5024946;28;20814;-72
2022/09/21 06:47:16;;;;;;;7.00;6.30;;;8.50;99.90;;;;;;5017744;28;20479;-72
2022/09/21 06:50:27;;;;;;;7.27;6.60;;;8.40;99.90;;;;;;5026853;28;20443;-72
2022/09/21 06:53:17;;;;;;;7.73;7.07;;;8.30;99.90;;;;;;5031108;28;20865;-72
2022/09/21 06:56:11;;;;;;;7.20;6.50;;;8.30;99.90;;;;;;5022781;28;20495;-71
2022/09/21 06:59:10;;;;;;;8.07;6.60;;;8.30;99.90;;;;;;5030640;28;20475;-71
2022/09/21 07:02:00;;;;;;;7.30;6.67;;;8.40;99.90;;;;;;5021440;28;22809;-71
2022/09/21 07:04:57;;;;;;;10.10;8.87;;;8.40;99.90;;;;;;5018881;28;20980;-72
2022/09/21 07:07:52;;;;;;;11.30;9.90;;;8.40;99.90;;;;;;5018038;28;20476;-71
2022/09/21 07:10:45;;;;;;;10.37;9.13;;;8.50;99.90;;;;;;5015029;28;20470;-72
2022/09/21 07:13:34;;;;;;;12.23;10.13;;;8.60;99.90;;;;;;5022825;28;21147;-71
2022/09/21 07:16:30;;;;;;;10.47;9.37;;;8.70;99.90;;;;;;5020163;28;20491;-71
2022/09/21 07:19:22;;;;;;;11.47;9.77;;;8.80;99.90;;;;;;5022008;28;20881;-71
2022/09/21 07:22:18;;;;;;;9.60;8.80;;;8.90;99.90;;;;;;5030203;28;20854;-72
2022/09/21 07:25:16;;;;;;;11.13;10.00;;;8.90;99.90;;;;;;5022414;28;20479;-72
2022/09/21 07:28:11;;;;;;;10.60;9.33;;;9.00;99.90;;;;;;5024070;28;20484;-71
2022/09/21 07:31:13;;;;;;;15.40;10.60;;;9.10;99.90;;;;;;5026245;28;20531;-72
2022/09/21 07:34:04;;;;;;;11.37;10.27;;;9.20;99.90;;;;;;5026501;28;20544;-72
2022/09/21 07:36:53;;;;;;;11.07;9.97;;;9.20;99.90;;;;;;5018088;28;20487;-72
2022/09/21 07:39:45;;;;;;;11.40;10.10;;;9.30;99.90;;;;;;5026160;28;20565;-72
2022/09/21 07:42:38;;;;;;;12.73;10.13;;;9.40;99.90;;;;;;5027229;28;20452;-72
2022/09/21 07:45:27;;;;;;;12.43;10.90;;;9.50;99.90;;;;;;5029976;28;20529;-69
2022/09/21 07:48:16;;;;;;;11.93;10.63;;;9.60;99.90;;;;;;5034535;28;20554;-71
2022/09/21 07:51:07;;;;;;;13.33;11.07;;;9.70;99.90;;;;;;5028741;28;20478;-71
2022/09/21 07:54:01;;;;;;;11.47;10.40;;;9.80;99.90;;;;;;5024248;28;20459;-72
2022/09/21 07:59:59;;;;;;;10.83;9.63;;;10.00;99.90;;;;;;5030155;28;20487;-71
2022/09/21 08:02:50;;;;;;;11.10;9.33;;;10.10;99.90;;;;;;5028992;28;20455;-70
2022/09/21 08:05:40;;;;;;;12.20;10.10;;;10.20;99.90;;;;;;5025348;28;20474;-71
2022/09/21 08:08:30;;;;;;;10.90;8.50;;;10.30;99.90;;;;;;5025064;28;20515;-71
2022/09/21 08:11:22;;;;;;;10.70;8.90;;;10.40;99.90;;;;;;5021847;28;20460;-71
2022/09/21 08:14:19;;;;;;;10.83;9.27;;;10.50;99.90;;;;;;5027249;28;20475;-72
2022/09/21 08:17:23;;;;;;;11.23;10.13;;;10.50;99.90;;;;;;5023263;28;20475;-71
2022/09/21 08:20:15;;;;;;;11.97;9.70;;;10.60;99.90;;;;;;5020401;28;20576;-71
2022/09/21 08:23:08;;;;;;;10.60;8.73;;;10.70;99.90;;;;;;5025220;28;20451;-71
2022/09/21 08:26:01;;;;;;;12.50;9.00;;;10.80;99.90;;;;;;5025941;28;20471;-71
2022/09/21 08:28:57;;;;;;;10.70;9.23;;;10.90;99.90;;;;;;5024224;28;20480;-71
2022/09/21 08:31:46;;;;;;;10.23;9.13;;;11.00;99.90;;;;;;5023527;28;20486;-71
2022/09/21 08:34:40;;;;;;;10.23;9.17;;;11.10;99.90;;;;;;5026921;28;20451;-71
2022/09/21 08:37:30;;;;;;;11.20;8.33;;;11.30;99.90;;;;;;5018398;28;21014;-71
2022/09/21 08:40:19;;;;;;;11.53;8.40;;;11.30;99.90;;;;;;5025759;28;20506;-71
2022/09/21 08:43:33;;;;;;;7.83;7.13;;;11.40;99.90;;;;;;5023865;28;20513;-71
2022/09/21 08:46:31;;;;;;;8.60;7.10;;;11.50;99.90;;;;;;5020609;28;20474;-71
2022/09/21 08:49:28;;;;;;;8.30;7.40;;;11.60;99.90;;;;;;5021747;28;20496;-71
2022/09/21 08:52:37;;;;;;;8.80;6.90;;;11.70;99.90;;;;;;5024309;28;20473;-71
2022/09/21 08:55:36;;;;;;;8.77;5.57;;;11.90;99.90;;;;;;5023520;28;20487;-71
2022/09/21 08:58:28;;;;;;;6.63;5.90;;;12.00;99.90;;;;;;5031548;28;20468;-71
2022/09/21 09:01:43;;;;;;;10.20;6.30;;;12.10;99.90;;;;;;5023001;28;20483;-71
2022/09/21 09:04:51;;;;;;;6.80;6.10;;;12.20;99.90;;;;;;5024252;28;20551;-71
2022/09/21 09:08:03;;;;;;;6.37;5.53;;;12.30;99.90;;;;;;5019284;28;20479;-71
2022/09/21 09:11:02;;;;;;;6.30;5.40;;;12.30;99.90;;;;;;5030089;28;20448;-71
2022/09/21 09:14:14;;;;;;;5.00;3.70;;;12.40;99.90;;;;;;5028259;28;20826;-71
2022/09/21 09:17:20;;;;;;;3.23;2.93;;;12.50;99.90;;;;;;5017567;28;20475;-72
2022/09/21 09:20:16;;;;;;;2.40;2.20;;;12.60;99.90;;;;;;5025962;28;20468;-71
2022/09/21 09:23:24;;;;;;;4.83;2.73;;;12.70;99.90;;;;;;5031589;28;20464;-70
2022/09/21 09:26:21;;;;;;;4.10;2.57;;;12.80;99.90;;;;;;5016220;28;20479;-71
2022/09/21 09:29:24;;;;;;;2.90;2.30;;;12.90;99.90;;;;;;5025760;28;20577;-71
2022/09/21 09:32:15;;;;;;;1.93;1.83;;;13.00;99.90;;;;;;5022195;28;20970;-71
2022/09/21 09:35:16;;;;;;;2.33;1.83;;;13.10;99.90;;;;;;5022482;28;20621;-71
2022/09/21 09:38:16;;;;;;;4.30;2.63;;;13.10;99.90;;;;;;5027361;28;20483;-72
2022/09/21 09:41:32;;;;;;;3.20;2.90;;;13.20;99.90;;;;;;5010098;28;20488;-71
2022/09/21 09:44:48;;;;;;;4.40;3.20;;;13.40;99.90;;;;;;5021833;28;20486;-72
2022/09/21 09:47:46;;;;;;;3.90;3.50;;;13.60;99.90;;;;;;5020052;28;20484;-72
2022/09/21 09:50:44;;;;;;;6.90;3.77;;;13.70;99.90;;;;;;5014945;28;20478;-71
2022/09/21 09:53:34;;;;;;;7.27;3.63;;;13.90;99.90;;;;;;5021207;28;20479;-71
2022/09/21 09:56:24;;;;;;;3.60;3.00;;;14.00;99.90;;;;;;5022360;28;21023;-71
2022/09/21 09:59:28;;;;;;;3.57;3.23;;;14.00;99.90;;;;;;5025536;28;20816;-71
2022/09/21 10:02:24;;;;;;;2.60;2.30;;;14.10;99.90;;;;;;5019860;28;20475;-71
2022/09/21 10:05:23;;;;;;;2.30;2.03;;;14.20;99.90;;;;;;5017497;28;20472;-71
2022/09/21 10:08:41;;;;;;;1.70;1.60;;;14.20;99.90;;;;;;5022823;28;20486;-71
2022/09/21 10:11:37;;;;;;;1.63;1.50;;;14.20;99.90;;;;;;5020839;28;20528;-71
2022/09/21 10:14:34;;;;;;;1.93;1.73;;;14.20;99.90;;;;;;5024968;28;20835;-71
2022/09/21 10:17:28;;;;;;;1.67;1.57;;;14.10;99.90;;;;;;5019200;28;20475;-71
2022/09/21 10:20:31;;;;;;;1.60;1.50;;;14.20;99.90;;;;;;5018882;28;20530;-71
2022/09/21 10:23:24;;;;;;;1.37;1.27;;;14.30;99.90;;;;;;5026647;28;20558;-71
2022/09/21 10:26:16;;;;;;;1.97;1.70;;;14.40;99.90;;;;;;5023524;28;20486;-71
2022/09/21 10:29:19;;;;;;;1.50;1.40;;;14.60;99.90;;;;;;5023032;28;20495;-71
2022/09/21 10:32:22;;;;;;;1.93;1.80;;;14.70;99.90;;;;;;5017718;28;20538;-72
2022/09/21 10:35:18;;;;;;;2.20;1.70;;;14.90;99.90;;;;;;5021091;28;20537;-71
2022/09/21 10:38:22;;;;;;;1.60;1.50;;;15.10;99.90;;;;;;5017270;28;20481;-71
2022/09/21 10:41:13;;;;;;;2.20;1.30;;;15.20;99.90;;;;;;5028232;28;20990;-71
2022/09/21 10:44:11;;;;;;;1.90;1.30;;;15.30;99.90;;;;;;5022690;28;20454;-71
2022/09/21 10:47:17;;;;;;;2.37;1.27;;;15.40;99.90;;;;;;5023832;28;20824;-71
2022/09/21 10:50:25;;;;;;;1.60;0.97;;;15.60;99.90;;;;;;5023238;28;20455;-72
2022/09/21 10:53:27;;;;;;;2.67;1.10;;;15.70;99.90;;;;;;5029104;28;20455;-71
2022/09/21 10:56:23;;;;;;;2.07;1.97;;;15.90;99.90;;;;;;5015971;28;20471;-71
2022/09/21 10:59:21;;;;;;;1.90;1.50;;;16.00;99.90;;;;;;5029870;28;20517;-71
2022/09/21 11:02:33;;;;;;;1.60;1.07;;;16.10;99.90;;;;;;5019303;28;20992;-72
2022/09/21 11:05:32;;;;;;;3.50;1.23;;;16.20;99.90;;;;;;5029405;28;20536;-71
2022/09/21 11:08:33;;;;;;;1.23;1.20;;;16.30;99.90;;;;;;5025519;28;20999;-71
2022/09/21 11:12:02;;;;;;;1.50;1.23;;;16.40;99.90;;;;;;5021335;28;20535;-71
2022/09/21 11:15:03;;;;;;;1.97;1.13;;;16.60;99.90;;;;;;4966551;28;20465;-72
2022/09/21 11:18:03;;;;;;;1.30;1.20;;;16.70;99.90;;;;;;4991339;28;20481;-72
2022/09/21 11:21:06;;;;;;;1.77;1.67;;;16.70;99.90;;;;;;5019525;28;20467;-71
2022/09/21 11:24:19;;;;;;;1.23;1.20;;;16.80;99.90;;;;;;5016890;28;20484;-72
2022/09/21 11:27:17;;;;;;;1.37;1.17;;;16.90;99.90;;;;;;5021648;28;20859;-71
2022/09/21 11:30:20;;;;;;;1.53;1.10;;;17.00;99.90;;;;;;5024504;22;20927;-69
2022/09/21 11:33:29;;;;;;;1.07;1.00;;;17.20;99.90;;;;;;5002566;28;20464;-69
2022/09/21 11:36:29;;;;;;;1.13;1.10;;;17.30;99.90;;;;;;5006243;28;20519;-68
2022/09/21 11:39:36;;;;;;;1.10;1.00;;;17.50;99.90;;;;;;5010017;28;20475;-68
2022/09/21 11:42:46;;;;;;;1.07;0.90;;;17.70;99.90;;;;;;5024594;28;20483;-70
2022/09/21 11:46:00;;;;;;;1.70;1.20;;;17.80;99.90;;;;;;5019412;28;20990;-70
2022/09/21 11:49:13;;;;;;;1.47;1.00;;;18.00;99.90;;;;;;5022723;28;21006;-70
2022/09/21 11:52:20;;;;;;;0.90;0.90;;;18.10;99.90;;;;;;5025826;28;20542;-70
2022/09/21 11:55:32;;;;;;;0.90;0.80;;;18.20;99.90;;;;;;5026559;28;20467;-69
2022/09/21 11:58:26;;;;;;;0.90;0.90;;;18.40;99.90;;;;;;5028011;28;20467;-71
2022/09/21 12:01:31;;;;;;;0.80;0.80;;;18.60;99.90;;;;;;5022395;28;20483;-70
2022/09/21 12:04:39;;;;;;;1.10;0.80;;;18.70;99.90;;;;;;5021586;28;20852;-69
2022/09/21 12:07:47;;;;;;;0.97;0.90;;;18.90;99.90;;;;;;5016956;28;20482;-70
2022/09/21 12:10:46;;;;;;;1.40;1.30;;;19.10;99.90;;;;;;5017973;28;20582;-72
2022/09/21 12:13:49;;;;;;;1.40;0.90;;;19.20;99.90;;;;;;5028010;28;20454;-70
2022/09/21 12:16:51;;;;;;;1.10;0.90;;;19.50;99.90;;;;;;5008716;28;20483;-71
2022/09/21 12:19:50;;;;;;;0.80;0.80;;;19.60;99.90;;;;;;5003158;28;20482;-71
2022/09/21 12:22:44;;;;;;;1.30;0.77;;;19.70;99.90;;;;;;5014379;28;20475;-69
2022/09/21 12:25:37;;;;;;;0.93;0.83;;;20.00;99.90;;;;;;5007093;28;20480;-70
2022/09/21 12:28:36;;;;;;;1.17;0.80;;;20.20;99.90;;;;;;5026765;28;20451;-69
2022/09/21 12:31:38;;;;;;;1.63;1.00;;;20.60;99.90;;;;;;5013523;28;20567;-69
2022/09/21 12:34:30;;;;;;;2.03;1.10;;;21.00;99.90;;;;;;5017378;28;20451;-70
2022/09/21 12:37:27;;;;;;;0.87;0.87;;;21.40;99.90;;;;;;5013974;28;20475;-70
2022/09/21 12:40:28;;;;;;;1.40;1.10;;;21.90;99.90;;;;;;5011570;28;20621;-70
2022/09/21 12:43:32;;;;;;;1.27;1.20;;;22.40;99.90;;;;;;5027004;28;20475;-70
2022/09/21 12:46:32;;;;;;;2.20;1.03;;;23.10;99.90;;;;;;5013363;28;21055;-71
2022/09/21 12:49:29;;;;;;;1.37;1.27;;;23.60;99.90;;;;;;5011894;28;20478;-70
2022/09/21 12:52:26;;;;;;;1.30;1.20;;;24.20;99.90;;;;;;5009723;28;20457;-70
2022/09/21 12:55:35;;;;;;;1.10;1.10;;;24.90;99.90;;;;;;5019407;28;20478;-73
2022/09/21 12:58:42;;;;;;;1.57;1.37;;;25.50;99.90;;;;;;5015390;28;21598;-69
2022/09/21 13:01:50;;;;;;;1.20;1.10;;;26.30;97.80;;;;;;5013743;28;20454;-69
2022/09/21 13:05:01;;;;;;;0.90;0.90;;;27.30;91.60;;;;;;5023932;28;21003;-71
2022/09/21 13:08:06;;;;;;;0.80;0.80;;;28.00;85.10;;;;;;5017536;28;20482;-70
2022/09/21 13:11:03;;;;;;;1.27;1.10;;;28.50;80.70;;;;;;5016955;28;20603;-73
2022/09/21 13:13:59;;;;;;;1.53;1.27;;;29.00;81.60;;;;;;5018633;28;20464;-73
2022/09/21 13:17:01;;;;;;;0.80;0.80;;;29.30;79.40;;;;;;5011107;28;21607;-71
2022/09/21 13:20:02;;;;;;;1.57;1.47;;;29.40;76.70;;;;;;5022978;28;20501;-71
2022/09/21 13:22:59;;;;;;;1.50;1.40;;;29.10;73.70;;;;;;5019492;28;20475;-71
2022/09/21 13:25:58;;;;;;;1.00;1.00;;;29.10;76.50;;;;;;5018609;28;20471;-73
2022/09/21 13:29:31;;;;;;;0.80;0.80;;;28.90;71.80;;;;;;5022572;28;20466;-70
2022/09/21 13:32:45;;;;;;;1.00;1.00;;;28.80;69.60;;;;;;5012344;28;20486;-70
2022/09/21 13:36:08;;;;;;;1.60;1.30;;;28.70;68.60;;;;;;5030186;28;20487;-70
2022/09/21 13:39:04;;;;;;;1.70;1.60;;;28.70;69.30;;;;;;5024492;28;20506;-70
2022/09/21 13:41:57;;;;;;;2.30;2.03;;;28.60;70.70;;;;;;5009623;28;20487;-70
2022/09/21 13:44:53;;;;;;;2.00;1.90;;;28.50;72.60;;;;;;5013796;28;20461;-70
2022/09/21 13:47:46;;;;;;;2.70;1.73;;;28.30;72.20;;;;;;5022155;28;20452;-70
2022/09/21 13:50:42;;;;;;;2.00;1.80;;;28.00;70.30;;;;;;5021448;28;20487;-70
2022/09/21 13:53:39;;;;;;;2.20;1.70;;;27.70;72.20;;;;;;5022160;28;20510;-72
2022/09/21 13:56:35;;;;;;;1.90;1.57;;;27.10;71.20;;;;;;5011927;28;21053;-71
2022/09/21 13:59:26;;;;;;;1.47;1.37;;;26.30;72.60;;;;;;5017339;28;20479;-74
2022/09/21 14:02:31;;;;;;;2.00;1.50;;;;;;;;;;5015616;28;20783;-72
2022/09/21 14:05:30;;;;;;;2.93;1.37;;;;;;;;;;5025974;28;20470;-73
2022/09/21 14:08:26;;;;;;;1.27;1.17;;;;;;;;;;5020516;28;20455;-73
2022/09/21 14:11:26;;;;;;;1.90;1.30;;;25.40;70.30;;;;;;5016356;28;20482;-73
2022/09/21 14:14:31;;;;;;;2.43;1.17;;;23.40;77.60;;;;;;5022690;28;21234;-72
2022/09/21 14:18:08;;;;;;;1.40;1.30;;;22.80;79.90;;;;;;5003366;28;20474;-70
2022/09/21 14:21:19;;;;;;;1.37;1.27;;;22.50;80.40;;;;;;5023039;28;20797;-70
2022/09/21 14:24:20;;;;;;;1.57;1.30;;;22.30;77.80;;;;;;5008454;28;20459;-70
2022/09/21 14:27:16;;;;;;;2.60;1.20;;;21.90;79.20;;;;;;5018193;28;20482;-70
2022/09/21 14:30:20;;;;;;;1.00;0.90;;;21.60;79.60;;;;;;5010423;28;20495;-71
2022/09/21 14:33:32;;;;;;;0.90;0.90;;;21.20;79.20;;;;;;5016683;28;20517;-70
2022/09/21 14:36:40;;;;;;;0.87;0.83;;;21.00;78.50;;;;;;5019481;28;20850;-70
2022/09/21 14:39:31;;;;;;;2.27;0.93;;;20.80;81.30;;;;;;5008188;28;22373;-70
2022/09/21 14:42:27;;;;;;;0.90;0.73;;;20.60;81.10;;;;;;5018304;28;20451;-69
2022/09/21 14:45:26;;;;;;;1.20;1.00;;;20.40;81.10;;;;;;5028720;28;20467;-71
2022/09/21 14:48:27;;;;;;;0.87;0.80;;;20.40;77.90;;;;;;5022116;28;20455;-70
2022/09/21 14:51:26;;;;;;;1.67;0.80;;;20.40;81.40;;;;;;5031247;28;20461;-70
2022/09/21 14:54:30;;;;;;;0.90;0.80;;;20.40;81.50;;;;;;5030996;28;20827;-70
2022/09/21 14:57:37;;;;;;;1.27;1.10;;;20.40;82.20;;;;;;5027940;28;20617;-70
2022/09/21 15:00:38;;;;;;;2.00;1.00;;;20.50;80.30;;;;;;5025990;28;20471;-69
2022/09/21 15:04:10;;;;;;;1.13;1.00;;;20.50;82.50;;;;;;5026892;28;20513;-70
2022/09/21 15:13:55;;;;;;;0.80;0.80;;;20.10;88.50;;;;;;5021125;28;20467;-70
2022/09/21 15:16:52;;;;;;;2.07;1.20;;;19.90;90.70;;;;;;5017088;28;20567;-70
2022/09/21 15:19:44;;;;;;;1.03;0.93;;;19.80;92.00;;;;;;5024141;28;20493;-70
2022/09/21 15:22:49;;;;;;;2.43;1.03;;;19.80;90.90;;;;;;5023008;28;20454;-70
2022/09/21 15:25:40;;;;;;;0.70;0.70;;;19.60;94.10;;;;;;5019302;28;20468;-70
2022/09/21 15:28:36;;;;;;;1.30;1.20;;;19.50;93.60;;;;;;5024045;28;20459;-70
2022/09/21 15:31:47;;;;;;;0.83;0.83;;;19.40;93.20;;;;;;5018648;28;20463;-70
2022/09/21 15:34:37;;;;;;;1.30;1.20;;;19.10;98.20;;;;;;5020082;28;20504;-70
2022/09/21 15:37:29;;;;;;;1.00;0.90;;;19.10;98.00;;;;;;5013786;28;20487;-68
2022/09/21 15:40:25;;;;;;;1.07;0.97;;;19.10;97.80;;;;;;5016976;28;20633;-69
2022/09/21 15:43:20;;;;;;;2.57;1.20;;;19.00;99.00;;;;;;5023275;28;20549;-69
2022/09/21 15:46:13;;;;;;;1.27;1.17;;;18.90;99.50;;;;;;5024135;28;20490;-68
2022/09/21 15:49:03;;;;;;;1.80;1.00;;;18.70;99.90;;;;;;5023463;28;20931;-70
2022/09/21 15:52:08;;;;;;;1.30;1.20;;;18.60;99.90;;;;;;5019605;28;20470;-71
2022/09/21 15:55:11;;;;;;;1.13;1.00;;;18.40;99.90;;;;;;5019237;28;20482;-70
2022/09/21 15:58:03;;;;;;;1.20;1.10;;;18.30;99.90;;;;;;5022952;28;20466;-69
2022/09/21 16:00:56;;;;;;;1.40;1.17;;;18.20;99.90;;;;;;5024931;28;20494;-70
2022/09/21 16:03:46;;;;;;;1.20;1.10;;;18.20;99.90;;;;;;5022744;28;20448;-69
2022/09/21 16:06:40;;;;;;;2.40;1.20;;;18.10;99.90;;;;;;5024994;28;20501;-69
2022/09/21 16:09:43;;;;;;;2.13;0.80;;;18.10;99.90;;;;;;5028182;28;20479;-69
2022/09/21 16:12:41;;;;;;;1.40;1.30;;;18.00;99.90;;;;;;5020898;28;20459;-70
2022/09/21 16:15:31;;;;;;;3.60;1.10;;;18.00;99.90;;;;;;5021063;28;20487;-70
2022/09/21 16:18:34;;;;;;;1.37;1.27;;;18.00;99.90;;;;;;5030153;28;20991;-70
2022/09/21 16:21:27;;;;;;;2.60;1.63;;;17.90;99.90;;;;;;5017436;28;20546;-70
2022/09/21 16:24:19;;;;;;;2.67;1.90;;;17.90;99.90;;;;;;5028455;28;20448;-71
2022/09/21 16:27:16;;;;;;;4.30;2.60;;;17.80;99.90;;;;;;5021362;28;20502;-70
2022/09/21 16:30:27;;;;;;;2.27;1.90;;;17.70;99.90;;;;;;5027068;28;20475;-71
2022/09/21 16:33:36;;;;;;;3.10;2.20;;;17.70;99.90;;;;;;5029405;28;20478;-70
2022/09/21 16:36:52;;;;;;;2.10;1.90;;;17.50;99.90;;;;;;5028715;28;21072;-70
2022/09/21 16:39:44;;;;;;;2.60;2.40;;;17.40;99.90;;;;;;5000280;28;21118;-71
2022/09/21 16:42:38;;;;;;;3.27;2.80;;;17.30;99.90;;;;;;5021906;28;20447;-70
2022/09/21 16:45:32;;;;;;;3.83;3.47;;;17.20;99.90;;;;;;5021232;28;20471;-70